createdAt,value
2019-02-08T00:03:48.970Z,8.36
2019-02-08T00:08:54.314Z,8.28
2019-02-08T00:13:59.678Z,8.20
2019-02-08T00:19:05.162Z,8.13
2019-02-08T00:24:10.572Z,8.07
2019-02-08T00:29:15.846Z,8.01
2019-02-08T00:34:21.200Z,8.04
2019-02-08T00:39:26.530Z,8.08
2019-02-08T00:44:31.815Z,8.08
2019-02-08T00:49:37.134Z,8.08
2019-02-08T00:54:42.620Z,8.05
2019-02-08T00:59:47.927Z,8.03
2019-02-08T01:04:53.346Z,8.06
2019-02-08T01:09:58.694Z,8.17
2019-02-08T01:15:04.423Z,8.29
2019-02-08T01:20:14.056Z,8.46
2019-02-08T01:25:21.682Z,8.63
2019-02-08T01:30:31.131Z,8.77
2019-02-08T01:35:36.462Z,8.89
2019-02-08T01:40:41.846Z,8.97
2019-02-08T01:45:47.167Z,9.06
2019-02-08T01:50:52.502Z,9.17
2019-02-08T01:55:57.803Z,9.24
2019-02-08T02:01:03.159Z,9.32
2019-02-08T02:06:08.442Z,9.36
2019-02-08T02:11:13.767Z,9.44
2019-02-08T02:16:19.178Z,9.48
2019-02-08T02:21:24.517Z,9.48
2019-02-08T02:26:29.994Z,9.46
2019-02-08T02:31:35.354Z,9.44
2019-02-08T02:36:40.730Z,9.44
2019-02-08T02:41:46.088Z,9.45
2019-02-08T02:46:51.404Z,9.49
2019-02-08T02:51:56.789Z,9.54
2019-02-08T02:57:02.081Z,9.60
2019-02-08T03:02:07.371Z,9.63
2019-02-08T03:07:12.770Z,9.70
2019-02-08T03:12:18.079Z,9.75
2019-02-08T03:17:23.450Z,9.77
2019-02-08T03:22:28.814Z,9.75
2019-02-08T03:27:34.207Z,9.61
2019-02-08T03:32:39.508Z,9.36
2019-02-08T03:37:44.831Z,9.08
2019-02-08T03:42:50.134Z,8.85
2019-02-08T03:47:55.434Z,8.68
2019-02-08T03:53:00.732Z,8.57
2019-02-08T03:58:06.386Z,8.55
2019-02-08T04:03:11.704Z,8.61
2019-02-08T04:08:17.106Z,8.73
2019-02-08T04:13:22.558Z,8.85
2019-02-08T04:18:27.950Z,8.94
2019-02-08T04:23:33.379Z,8.98
2019-02-08T04:28:38.800Z,9.01
2019-02-08T04:33:44.102Z,9.04
2019-02-08T04:38:49.521Z,9.04
2019-02-08T04:43:54.874Z,9.06
2019-02-08T04:49:00.190Z,9.05
2019-02-08T04:54:05.587Z,9.07
2019-02-08T04:59:10.992Z,9.11
2019-02-08T05:04:16.298Z,9.15
2019-02-08T05:09:21.739Z,9.22
2019-02-08T05:14:27.111Z,9.24
2019-02-08T05:19:32.427Z,9.27
2019-02-08T05:24:37.806Z,9.31
2019-02-08T05:29:43.156Z,9.30
2019-02-08T05:34:48.587Z,9.19
2019-02-08T05:39:53.890Z,9.08
2019-02-08T05:44:59.298Z,9.05
2019-02-08T05:50:05.363Z,9.03
2019-02-08T05:55:12.349Z,9.01
2019-02-08T06:00:41.222Z,9.03
2019-02-08T06:05:46.559Z,9.07
2019-02-08T06:10:51.887Z,9.13
2019-02-08T06:15:57.250Z,9.18
2019-02-08T06:21:02.561Z,9.23
2019-02-08T06:26:07.931Z,9.27
2019-02-08T06:31:13.352Z,9.31
2019-02-08T06:36:18.928Z,9.34
2019-02-08T06:41:24.286Z,9.37
2019-02-08T06:46:29.663Z,9.36
2019-02-08T06:51:35.057Z,9.38
2019-02-08T06:57:14.497Z,9.40
2019-02-08T07:02:47.601Z,9.39
2019-02-08T07:08:10.258Z,9.46
2019-02-08T07:13:35.734Z,9.55
2019-02-08T07:18:58.194Z,9.65
2019-02-08T07:24:11.921Z,9.76
2019-02-08T07:29:36.214Z,9.90
2019-02-08T07:35:00.452Z,10.00
2019-02-08T07:40:26.342Z,10.13
2019-02-08T07:45:49.564Z,10.24
2019-02-08T07:51:19.782Z,10.35
2019-02-08T07:56:30.818Z,10.51
2019-02-08T08:01:55.034Z,10.64
2019-02-08T08:07:34.250Z,10.88
2019-02-08T08:13:07.237Z,11.03
2019-02-08T08:18:30.458Z,11.07
2019-02-08T08:23:57.780Z,11.02
2019-02-08T08:29:22.014Z,11.01
2019-02-08T08:35:14.772Z,11.06
2019-02-08T08:41:24.661Z,11.05
2019-02-08T08:47:34.548Z,11.01
2019-02-08T08:53:44.003Z,11.03
2019-02-08T08:59:37.257Z,11.10
2019-02-08T09:05:13.018Z,11.22
2019-02-08T09:11:30.758Z,11.30
2019-02-08T09:17:27.350Z,11.42
2019-02-08T09:23:13.272Z,11.53
2019-02-08T09:28:40.070Z,11.72
2019-02-08T09:35:03.661Z,11.94
2019-02-08T09:41:09.742Z,12.14
2019-02-08T09:47:32.774Z,12.31
2019-02-08T09:54:17.613Z,12.59
2019-02-08T10:00:27.231Z,12.82
2019-02-08T10:06:27.363Z,12.99
2019-02-08T10:12:32.008Z,12.98
2019-02-08T10:18:36.964Z,12.90
2019-02-08T10:24:43.074Z,12.85
2019-02-08T10:30:56.242Z,12.87
2019-02-08T10:36:56.446Z,12.95
2019-02-08T10:42:52.295Z,13.09
2019-02-08T10:48:42.016Z,13.26
2019-02-08T10:54:51.143Z,13.31
2019-02-08T11:00:50.955Z,13.24
2019-02-08T11:07:04.986Z,13.21
2019-02-08T11:13:11.725Z,13.19
2019-02-08T11:19:22.255Z,13.21
2019-02-08T11:24:28.400Z,13.28
2019-02-08T11:29:33.737Z,13.35
2019-02-08T11:34:43.219Z,13.50
2019-02-08T11:39:48.608Z,13.58
2019-02-08T11:44:54.157Z,13.69
2019-02-08T11:49:59.649Z,13.87
2019-02-08T11:55:05.290Z,13.92
2019-02-08T12:00:31.608Z,13.83
2019-02-08T12:05:36.998Z,13.65
2019-02-08T12:10:42.331Z,13.48
2019-02-08T12:15:47.736Z,13.36
2019-02-08T12:20:53.033Z,13.30
2019-02-08T12:25:58.498Z,13.21
2019-02-08T12:31:04.003Z,13.15
2019-02-08T12:36:09.389Z,13.09
2019-02-08T12:41:14.764Z,13.02
2019-02-08T12:46:20.076Z,12.95
2019-02-08T12:51:25.383Z,12.89
2019-02-08T12:56:30.714Z,12.85
2019-02-08T13:01:37.770Z,12.74
2019-02-08T13:06:43.074Z,12.69
2019-02-08T13:11:48.581Z,12.57
2019-02-08T13:16:53.973Z,12.51
2019-02-08T13:21:59.250Z,12.41
2019-02-08T13:27:04.604Z,12.38
2019-02-08T13:32:09.901Z,12.37
2019-02-08T13:37:15.314Z,12.35
2019-02-08T13:42:20.643Z,12.33
2019-02-08T13:47:26.080Z,12.39
2019-02-08T13:52:31.503Z,12.47
2019-02-08T13:57:36.851Z,12.48
2019-02-08T14:02:42.681Z,12.50
2019-02-08T14:07:48.313Z,12.49
2019-02-08T14:12:53.619Z,12.44
2019-02-08T14:17:59.088Z,12.39
2019-02-08T14:23:04.451Z,12.39
2019-02-08T14:28:10.033Z,12.40
2019-02-08T14:33:15.349Z,12.45
2019-02-08T14:38:22.197Z,12.55
2019-02-08T14:43:27.566Z,12.67
2019-02-08T14:48:32.847Z,12.78
2019-02-08T14:53:38.252Z,12.83
2019-02-08T14:58:43.664Z,12.81
2019-02-08T15:03:48.956Z,12.79
2019-02-08T15:08:54.424Z,12.74
2019-02-08T15:13:59.827Z,12.65
2019-02-08T15:19:05.342Z,12.51
2019-02-08T15:24:10.841Z,12.43
2019-02-08T15:29:16.136Z,12.36
2019-02-08T15:34:21.451Z,12.33
2019-02-08T15:39:26.903Z,12.32
2019-02-08T15:44:32.210Z,12.33
2019-02-08T15:49:37.631Z,12.28
2019-02-08T15:54:45.014Z,12.24
2019-02-08T15:59:50.302Z,12.15
2019-02-08T16:04:55.643Z,12.09
2019-02-08T16:10:00.941Z,12.00
2019-02-08T16:15:08.454Z,11.93
2019-02-08T16:20:14.001Z,11.86
2019-02-08T16:25:20.013Z,11.81
2019-02-08T16:30:28.003Z,11.76
2019-02-08T16:35:33.407Z,11.76
2019-02-08T16:40:39.035Z,11.79
2019-02-08T16:45:44.378Z,11.83
2019-02-08T16:50:49.814Z,11.85
2019-02-08T16:55:55.250Z,11.86
2019-02-08T17:01:00.607Z,11.90
2019-02-08T17:06:06.136Z,11.90
2019-02-08T17:11:11.640Z,11.88
2019-02-08T17:16:17.005Z,11.81
2019-02-08T17:21:22.347Z,11.75
2019-02-08T17:26:27.720Z,11.73
2019-02-08T17:31:33.140Z,11.71
2019-02-08T17:36:38.630Z,11.69
2019-02-08T17:41:44.048Z,11.64
2019-02-08T17:46:49.367Z,11.64
2019-02-08T17:51:54.827Z,11.64
2019-02-08T17:57:00.264Z,11.62
2019-02-08T18:02:05.657Z,11.63
2019-02-08T18:07:11.193Z,11.68
2019-02-08T18:12:17.953Z,11.73
2019-02-08T18:17:23.325Z,11.78
2019-02-08T18:22:28.706Z,11.84
2019-02-08T18:27:34.115Z,11.91
2019-02-08T18:32:39.496Z,11.94
2019-02-08T18:37:44.818Z,11.97
2019-02-08T18:42:50.133Z,11.98
2019-02-08T18:47:55.476Z,12.02
2019-02-08T18:53:00.862Z,12.03
2019-02-08T18:58:06.388Z,12.03
2019-02-08T19:03:11.714Z,12.06
2019-02-08T19:08:17.084Z,12.06
2019-02-08T19:13:22.430Z,12.04
2019-02-08T19:18:27.809Z,12.02
2019-02-08T19:23:33.217Z,12.04
2019-02-08T19:28:38.714Z,12.04
2019-02-08T19:33:44.069Z,12.04
2019-02-08T19:38:49.556Z,12.04
2019-02-08T19:43:55.687Z,12.04
2019-02-08T19:49:01.197Z,12.00
2019-02-08T19:54:06.544Z,11.99
2019-02-08T19:59:11.869Z,12.01
2019-02-08T20:04:17.216Z,12.03
2019-02-08T20:09:22.916Z,12.03
2019-02-08T20:14:28.443Z,12.01
2019-02-08T20:19:33.841Z,12.01
2019-02-08T20:24:39.255Z,11.99
2019-02-08T20:29:44.768Z,12.03
2019-02-08T20:34:50.214Z,12.01
2019-02-08T20:39:55.690Z,12.02
2019-02-08T20:45:01.352Z,12.03
2019-02-08T20:50:08.379Z,12.05
2019-02-08T20:55:14.073Z,12.05
2019-02-08T21:00:27.838Z,12.05
2019-02-08T21:05:33.171Z,11.99
2019-02-08T21:10:38.651Z,11.90
2019-02-08T21:15:43.966Z,11.77
2019-02-08T21:20:51.581Z,11.64
2019-02-08T21:25:57.010Z,11.53
2019-02-08T21:31:02.553Z,11.47
2019-02-08T21:36:08.096Z,11.40
2019-02-08T21:41:13.501Z,11.36
2019-02-08T21:46:19.389Z,11.37
2019-02-08T21:51:24.806Z,11.46
2019-02-08T21:56:30.837Z,11.47
2019-02-08T22:01:36.217Z,11.51
2019-02-08T22:06:41.566Z,11.56
2019-02-08T22:11:46.857Z,11.62
2019-02-08T22:16:52.321Z,11.63
2019-02-08T22:21:57.617Z,11.65
2019-02-08T22:27:02.983Z,11.68
2019-02-08T22:32:08.319Z,11.71
2019-02-08T22:37:13.715Z,11.73
2019-02-08T22:42:19.017Z,11.76
2019-02-08T22:47:24.410Z,11.77
2019-02-08T22:52:29.727Z,11.77
2019-02-08T22:57:35.135Z,11.76
2019-02-08T23:02:40.508Z,11.86
2019-02-08T23:07:45.955Z,11.94
2019-02-08T23:12:51.520Z,12.03
2019-02-08T23:17:56.841Z,12.14
2019-02-08T23:23:02.138Z,12.23
2019-02-08T23:28:07.445Z,12.29
2019-02-08T23:33:12.740Z,12.36
2019-02-08T23:38:18.080Z,12.41
2019-02-08T23:43:23.425Z,12.44
2019-02-08T23:48:28.771Z,12.43
2019-02-08T23:53:34.089Z,12.43
2019-02-08T23:58:39.469Z,12.39
